createdAt,value
2022-08-10T00:00:00.262Z,17.6
2022-08-10T00:01:00.236Z,17.6
2022-08-10T00:02:00.372Z,17.6
2022-08-10T00:03:00.332Z,17.6
2022-08-10T00:04:01.073Z,17.5
2022-08-10T00:05:00.261Z,17.6
2022-08-10T00:06:00.436Z,17.5
2022-08-10T00:07:00.276Z,17.5
2022-08-10T00:08:00.348Z,17.5
2022-08-10T00:09:00.310Z,17.5
2022-08-10T00:10:00.617Z,17.5
2022-08-10T00:11:00.281Z,17.5
2022-08-10T00:12:00.296Z,17.5
2022-08-10T00:13:00.298Z,17.4
2022-08-10T00:14:00.723Z,17.4
2022-08-10T00:15:00.350Z,17.4
2022-08-10T00:16:00.445Z,17.4
2022-08-10T00:17:00.315Z,17.4
2022-08-10T00:18:00.551Z,17.4
2022-08-10T00:19:00.281Z,17.3
2022-08-10T00:20:04.244Z,17.4
2022-08-10T00:21:00.505Z,17.3
2022-08-10T00:22:00.416Z,17.3
2022-08-10T00:23:00.328Z,17.3
2022-08-10T00:24:00.319Z,17.2
2022-08-10T00:25:00.595Z,17.2
2022-08-10T00:26:01.008Z,17.2
2022-08-10T00:27:51.913Z,17.1
2022-08-10T00:28:03.729Z,17.1
2022-08-10T00:29:00.242Z,17.1
2022-08-10T00:30:00.425Z,17.1
2022-08-10T00:31:00.664Z,17.1
2022-08-10T00:32:00.541Z,17.1
2022-08-10T00:33:00.327Z,17.1
2022-08-10T00:34:00.312Z,17.1
2022-08-10T00:35:00.320Z,17.0
2022-08-10T00:36:00.312Z,17.0
2022-08-10T00:37:00.648Z,17.0
2022-08-10T00:38:00.517Z,17.0
2022-08-10T00:39:00.373Z,17.0
2022-08-10T00:40:00.484Z,17.0
2022-08-10T00:41:00.315Z,17.0
2022-08-10T00:42:07.171Z,16.9
2022-08-10T00:43:00.309Z,16.9
2022-08-10T00:44:00.331Z,17.0
2022-08-10T00:45:00.576Z,16.9
2022-08-10T00:46:00.632Z,16.9
2022-08-10T00:47:00.272Z,16.9
2022-08-10T00:48:00.544Z,16.9
2022-08-10T00:49:00.811Z,16.9
2022-08-10T00:50:00.653Z,16.9
2022-08-10T00:51:01.008Z,16.9
2022-08-10T00:52:01.816Z,16.9
2022-08-10T00:53:00.614Z,16.9
2022-08-10T00:54:00.383Z,17.0
2022-08-10T00:55:04.904Z,17.0
2022-08-10T00:56:35.242Z,16.9
2022-08-10T00:57:16.290Z,16.9
2022-08-10T00:58:01.057Z,16.9
2022-08-10T00:59:00.297Z,16.9
2022-08-10T01:00:00.903Z,16.8
2022-08-10T01:01:00.314Z,16.8
2022-08-10T01:02:08.858Z,16.8
2022-08-10T01:03:00.513Z,16.8
2022-08-10T01:04:40.183Z,16.8
2022-08-10T01:05:06.039Z,16.8
2022-08-10T01:06:15.323Z,16.8
2022-08-10T01:07:13.364Z,16.8
2022-08-10T01:08:17.569Z,16.9
2022-08-10T01:09:17.640Z,16.9
2022-08-10T01:10:18.738Z,16.9
2022-08-10T01:11:07.944Z,16.9
2022-08-10T01:12:39.376Z,16.8
2022-08-10T01:13:18.210Z,16.8
2022-08-10T01:14:09.180Z,16.9
2022-08-10T01:15:09.844Z,16.9
2022-08-10T01:16:09.189Z,16.9
2022-08-10T01:17:09.243Z,16.9
2022-08-10T01:18:05.768Z,16.8
2022-08-10T01:19:12.682Z,16.8
2022-08-10T01:20:05.189Z,16.8
2022-08-10T01:21:04.505Z,16.8
2022-08-10T01:22:10.177Z,16.9
2022-08-10T01:23:11.206Z,16.9
2022-08-10T01:24:07.754Z,16.9
2022-08-10T01:25:20.183Z,16.9
2022-08-10T01:26:31.072Z,16.9
2022-08-10T01:27:17.307Z,16.9
2022-08-10T01:28:17.667Z,16.9
2022-08-10T01:29:20.139Z,16.9
2022-08-10T01:30:06.077Z,16.9
2022-08-10T01:31:03.693Z,16.9
2022-08-10T01:32:03.742Z,16.9
2022-08-10T01:33:07.373Z,16.9
2022-08-10T01:34:06.538Z,16.9
2022-08-10T01:35:08.576Z,16.9
2022-08-10T01:36:11.267Z,16.8
2022-08-10T01:37:05.397Z,16.8
2022-08-10T01:38:05.510Z,16.8
2022-08-10T01:39:03.643Z,16.8
2022-08-10T01:40:03.553Z,16.8
2022-08-10T01:41:03.618Z,16.8
2022-08-10T01:42:02.291Z,16.8
2022-08-10T01:43:08.280Z,16.8
2022-08-10T01:44:12.390Z,16.7
2022-08-10T01:45:04.035Z,16.7
2022-08-10T01:46:03.074Z,16.7
2022-08-10T01:47:04.322Z,16.7
2022-08-10T01:48:03.429Z,16.7
2022-08-10T01:49:05.835Z,16.7
2022-08-10T01:50:07.019Z,16.7
2022-08-10T01:51:13.821Z,16.6
2022-08-10T01:52:01.774Z,16.6
2022-08-10T01:53:06.535Z,16.6
2022-08-10T01:54:05.021Z,16.6
2022-08-10T01:55:00.305Z,16.5
2022-08-10T01:56:01.293Z,16.5
2022-08-10T01:57:00.888Z,16.5
2022-08-10T01:58:03.047Z,16.5
2022-08-10T01:59:06.808Z,16.4
2022-08-10T02:00:02.779Z,16.4
2022-08-10T02:01:01.794Z,16.4
2022-08-10T02:02:03.771Z,16.4
2022-08-10T02:03:02.868Z,16.4
2022-08-10T02:04:05.940Z,16.4
2022-08-10T02:05:02.219Z,16.3
2022-08-10T02:06:03.305Z,16.3
2022-08-10T02:07:02.481Z,16.3
2022-08-10T02:08:02.702Z,16.2
2022-08-10T02:09:06.590Z,16.2
2022-08-10T02:10:04.683Z,16.2
2022-08-10T02:11:01.761Z,16.2
2022-08-10T02:12:07.030Z,16.2
2022-08-10T02:13:01.747Z,16.2
2022-08-10T02:14:01.659Z,16.2
2022-08-10T02:15:04.828Z,16.2
2022-08-10T02:16:02.657Z,16.2
2022-08-10T02:17:03.597Z,16.2
2022-08-10T02:18:03.260Z,16.3
2022-08-10T02:19:02.047Z,16.3
2022-08-10T02:20:12.994Z,16.3
2022-08-10T02:21:03.413Z,16.3
2022-08-10T02:22:34.787Z,16.3
2022-08-10T02:23:05.205Z,16.3
2022-08-10T02:24:02.525Z,16.3
2022-08-10T02:25:02.097Z,16.3
2022-08-10T02:26:02.537Z,16.3
2022-08-10T02:27:01.314Z,16.3
2022-08-10T02:28:02.771Z,16.3
2022-08-10T02:29:01.341Z,16.3
2022-08-10T02:30:02.541Z,16.3
2022-08-10T02:31:06.912Z,16.2
2022-08-10T02:32:01.678Z,16.2
2022-08-10T02:33:01.972Z,16.2
2022-08-10T02:34:01.877Z,16.2
2022-08-10T02:35:03.129Z,16.2
2022-08-10T02:36:04.137Z,16.2
2022-08-10T02:37:02.767Z,16.1
2022-08-10T02:38:03.758Z,16.1
2022-08-10T02:39:03.631Z,16.1
2022-08-10T02:40:00.403Z,16.0
2022-08-10T02:45:01.078Z,16.0
2022-08-10T02:45:02.632Z,16.0
2022-08-10T02:45:20.485Z,15.8
2022-08-10T02:45:20.592Z,15.9
2022-08-10T02:45:23.855Z,15.9
2022-08-10T02:46:07.273Z,15.8
2022-08-10T02:47:07.727Z,15.8
2022-08-10T02:48:08.635Z,15.8
2022-08-10T02:49:02.817Z,15.8
2022-08-10T02:50:08.813Z,15.7
2022-08-10T02:51:05.966Z,15.7
2022-08-10T02:52:08.977Z,15.7
2022-08-10T02:53:55.134Z,15.6
2022-08-10T02:54:06.479Z,15.6
2022-08-10T02:55:18.094Z,15.6
2022-08-10T02:56:09.324Z,15.6
2022-08-10T02:57:07.438Z,15.6
2022-08-10T02:58:16.748Z,15.6
2022-08-10T02:59:06.307Z,15.6
2022-08-10T03:00:04.312Z,15.6
2022-08-10T03:01:05.709Z,15.6
2022-08-10T03:02:04.071Z,15.6
2022-08-10T03:03:02.405Z,15.5
2022-08-10T03:04:06.444Z,15.5
2022-08-10T03:05:05.661Z,15.5
2022-08-10T03:06:06.495Z,15.5
2022-08-10T03:07:05.162Z,15.5
2022-08-10T03:08:04.811Z,15.5
2022-08-10T03:09:02.491Z,15.5
2022-08-10T03:10:01.661Z,15.5
2022-08-10T03:11:03.760Z,15.5
2022-08-10T03:12:35.227Z,15.5
2022-08-10T03:13:03.170Z,15.5
2022-08-10T03:14:01.880Z,15.5
2022-08-10T03:15:03.081Z,15.4
2022-08-10T03:16:02.516Z,15.4
2022-08-10T03:17:01.732Z,15.4
2022-08-10T03:18:01.912Z,15.4
2022-08-10T03:19:03.375Z,15.3
2022-08-10T03:20:34.667Z,15.3
2022-08-10T03:21:01.064Z,15.2
2022-08-10T03:22:02.416Z,15.2
2022-08-10T03:23:03.423Z,15.2
2022-08-10T03:24:01.733Z,15.2
2022-08-10T03:25:01.406Z,15.2
2022-08-10T03:26:00.961Z,15.2
2022-08-10T03:27:02.051Z,15.1
2022-08-10T03:28:01.160Z,15.1
2022-08-10T03:29:01.380Z,15.1
2022-08-10T03:30:32.621Z,15.1
2022-08-10T03:31:00.997Z,15.1
2022-08-10T03:32:02.522Z,15.1
2022-08-10T03:33:03.914Z,15.1
2022-08-10T03:34:02.061Z,15.1
2022-08-10T03:35:00.970Z,15.1
2022-08-10T03:36:40.427Z,15.1
2022-08-10T03:37:00.320Z,15.0
2022-08-10T03:38:01.201Z,15.1
2022-08-10T03:39:00.321Z,15.1
2022-08-10T03:40:00.388Z,15.1
2022-08-10T03:41:03.077Z,15.1
2022-08-10T03:42:03.011Z,15.1
2022-08-10T03:43:02.204Z,15.1
2022-08-10T03:44:02.304Z,15.1
2022-08-10T03:45:04.150Z,15.1
2022-08-10T03:46:05.062Z,15.1
2022-08-10T03:47:03.231Z,15.1
2022-08-10T03:48:03.214Z,15.1
2022-08-10T03:49:02.471Z,15.1
2022-08-10T03:50:03.450Z,15.0
2022-08-10T03:51:00.882Z,15.0
2022-08-10T03:52:00.727Z,15.0
2022-08-10T03:53:00.369Z,15.0
2022-08-10T03:54:06.989Z,15.0
2022-08-10T03:55:01.547Z,15.0
2022-08-10T03:56:28.001Z,15.0
2022-08-10T03:57:00.944Z,15.0
2022-08-10T03:58:00.523Z,15.1
2022-08-10T03:59:01.052Z,15.1
2022-08-10T04:00:00.349Z,15.1
2022-08-10T04:01:00.548Z,15.1
2022-08-10T04:02:45.386Z,15.1
2022-08-10T04:03:02.755Z,15.1
2022-08-10T04:04:11.517Z,15.1
2022-08-10T04:05:00.598Z,15.2
2022-08-10T04:06:00.323Z,15.2
2022-08-10T04:07:02.099Z,15.2
2022-08-10T04:08:01.516Z,15.2
2022-08-10T04:09:01.917Z,15.2
2022-08-10T04:10:00.463Z,15.2
2022-08-10T04:11:00.309Z,15.2
2022-08-10T04:12:00.970Z,15.2
2022-08-10T04:13:00.269Z,15.2
2022-08-10T04:14:00.275Z,15.3
2022-08-10T04:15:00.241Z,15.3
2022-08-10T04:16:00.288Z,15.3
2022-08-10T04:17:00.317Z,15.3
2022-08-10T04:18:05.568Z,15.3
2022-08-10T04:19:00.967Z,15.3
2022-08-10T04:20:04.419Z,15.4
2022-08-10T04:21:05.793Z,15.4
2022-08-10T04:22:07.508Z,15.4
2022-08-10T04:23:05.416Z,15.4
2022-08-10T04:24:01.532Z,15.4
2022-08-10T04:25:03.146Z,15.5
2022-08-10T04:26:00.380Z,15.5
2022-08-10T04:27:01.492Z,15.5
2022-08-10T04:28:00.695Z,15.6
2022-08-10T04:29:00.323Z,15.6
2022-08-10T04:30:00.519Z,15.6
2022-08-10T04:31:01.774Z,15.7
2022-08-10T04:32:02.505Z,15.7
2022-08-10T04:33:02.136Z,15.7
2022-08-10T04:34:01.541Z,15.7
2022-08-10T04:35:03.687Z,15.7
2022-08-10T04:36:02.457Z,15.7
2022-08-10T04:37:08.596Z,15.8
2022-08-10T04:38:02.569Z,15.9
2022-08-10T04:39:00.828Z,16.1
2022-08-10T04:40:01.046Z,16.2
2022-08-10T04:41:00.993Z,16.3
2022-08-10T04:42:00.296Z,16.4
2022-08-10T04:43:07.397Z,16.5
2022-08-10T04:44:00.304Z,16.6
2022-08-10T04:45:00.405Z,16.8
2022-08-10T04:46:00.290Z,16.9
2022-08-10T04:47:00.259Z,17.1
2022-08-10T04:48:03.474Z,17.2
2022-08-10T04:49:01.509Z,17.3
2022-08-10T04:50:00.269Z,17.5
2022-08-10T04:51:00.242Z,17.6
2022-08-10T04:52:00.319Z,17.7
2022-08-10T04:53:00.462Z,17.9
2022-08-10T04:54:03.991Z,18.0
2022-08-10T04:55:00.342Z,18.0
2022-08-10T04:56:00.318Z,17.8
2022-08-10T04:57:00.260Z,17.7
2022-08-10T04:58:00.356Z,17.7
2022-08-10T04:59:00.267Z,17.8
2022-08-10T05:00:00.352Z,17.8
2022-08-10T05:01:00.826Z,17.9
2022-08-10T05:02:28.751Z,18.0
2022-08-10T05:03:00.311Z,18.1
2022-08-10T05:04:38.457Z,17.9
2022-08-10T05:05:00.294Z,18.0
2022-08-10T05:06:00.236Z,18.0
2022-08-10T05:07:00.313Z,18.2
2022-08-10T05:08:00.292Z,18.3
2022-08-10T05:09:00.345Z,18.2
2022-08-10T05:10:06.057Z,18.2
2022-08-10T05:11:00.296Z,18.1
2022-08-10T05:12:00.299Z,18.1
2022-08-10T05:13:00.253Z,18.3
2022-08-10T05:14:00.240Z,18.4
2022-08-10T05:15:00.377Z,18.6
2022-08-10T05:16:00.245Z,18.6
2022-08-10T05:17:00.257Z,18.8
2022-08-10T05:18:06.077Z,18.8
2022-08-10T05:19:00.239Z,18.8
2022-08-10T05:20:01.905Z,19.2
2022-08-10T05:21:00.316Z,19.3
2022-08-10T05:22:04.565Z,19.4
2022-08-10T05:23:00.249Z,19.5
2022-08-10T05:24:00.256Z,19.5
2022-08-10T05:25:00.306Z,19.5
2022-08-10T05:26:00.318Z,19.6
2022-08-10T05:27:09.949Z,19.4
2022-08-10T05:28:04.397Z,19.6
2022-08-10T05:29:00.231Z,19.8
2022-08-10T05:30:02.226Z,20.2
2022-08-10T05:31:00.244Z,20.4
2022-08-10T05:32:00.468Z,20.6
2022-08-10T05:33:03.805Z,20.6
2022-08-10T05:34:00.304Z,20.6
2022-08-10T05:35:00.600Z,20.5
2022-08-10T05:36:00.480Z,20.5
2022-08-10T05:37:00.714Z,20.7
2022-08-10T05:38:11.628Z,20.2
2022-08-10T05:39:01.272Z,20.0
2022-08-10T05:40:02.755Z,19.9
2022-08-10T05:41:01.705Z,19.9
2022-08-10T05:42:01.703Z,19.8
2022-08-10T05:43:00.278Z,19.7
2022-08-10T05:44:01.238Z,19.6
2022-08-10T05:45:00.270Z,19.8
2022-08-10T05:46:18.592Z,19.9
2022-08-10T05:47:00.331Z,19.7
2022-08-10T05:48:57.047Z,19.6
2022-08-10T05:49:01.793Z,19.9
2022-08-10T05:50:00.260Z,20.0
2022-08-10T05:51:00.410Z,20.2
2022-08-10T05:52:00.547Z,20.2
2022-08-10T05:53:05.674Z,20.3
2022-08-10T05:54:05.729Z,20.4
2022-08-10T05:55:03.034Z,20.9
2022-08-10T05:56:02.035Z,21.3
2022-08-10T05:57:00.644Z,21.5
2022-08-10T05:58:00.757Z,21.6
2022-08-10T05:59:00.248Z,21.2
2022-08-10T06:00:30.734Z,21.1
2022-08-10T06:01:02.560Z,21.1
2022-08-10T06:02:32.001Z,21.2
2022-08-10T06:03:03.421Z,21.3
2022-08-10T06:04:01.686Z,21.3
2022-08-10T06:05:05.898Z,21.9
2022-08-10T06:06:03.103Z,21.9
2022-08-10T06:07:00.921Z,21.9
2022-08-10T06:08:07.494Z,21.9
2022-08-10T06:09:01.419Z,21.9
2022-08-10T06:10:01.142Z,21.9
2022-08-10T06:12:24.158Z,21.8
2022-08-10T06:12:28.065Z,22.0
2022-08-10T06:13:04.084Z,22.1
2022-08-10T06:14:13.027Z,22.1
2022-08-10T06:15:05.430Z,22.2
2022-08-10T06:16:04.682Z,22.4
2022-08-10T06:17:01.030Z,22.3
2022-08-10T06:18:02.073Z,22.3
2022-08-10T06:19:01.081Z,22.5
2022-08-10T06:20:00.586Z,22.9
2022-08-10T06:21:01.123Z,23.4
2022-08-10T06:22:01.668Z,23.9
2022-08-10T06:23:02.491Z,24.0
2022-08-10T06:24:01.527Z,24.0
2022-08-10T06:25:38.221Z,23.9
2022-08-10T06:26:10.325Z,23.9
2022-08-10T06:27:00.232Z,23.7
2022-08-10T06:28:01.354Z,23.6
2022-08-10T06:29:06.467Z,23.8
2022-08-10T06:30:00.994Z,23.8
2022-08-10T06:31:03.085Z,23.7
2022-08-10T06:32:04.054Z,23.6
2022-08-10T06:33:01.827Z,23.6
2022-08-10T06:34:01.836Z,23.7
2022-08-10T06:35:03.274Z,23.4
2022-08-10T06:36:02.051Z,23.5
2022-08-10T06:37:03.257Z,23.7
2022-08-10T06:38:03.152Z,23.5
2022-08-10T06:39:16.937Z,23.5
2022-08-10T06:40:00.574Z,23.3
2022-08-10T06:41:07.496Z,23.8
2022-08-10T06:42:15.865Z,23.7
2022-08-10T06:43:02.556Z,23.7
2022-08-10T06:44:08.362Z,23.7
2022-08-10T06:45:06.649Z,23.8
2022-08-10T06:46:07.851Z,23.8
2022-08-10T06:47:02.173Z,23.8
2022-08-10T06:48:06.636Z,23.7
2022-08-10T06:49:04.591Z,23.7
2022-08-10T06:50:09.199Z,24.2
2022-08-10T06:51:15.834Z,24.5
2022-08-10T06:52:01.559Z,24.5
2022-08-10T06:53:02.295Z,24.8
2022-08-10T06:54:03.340Z,25.1
2022-08-10T06:55:05.474Z,25.5
2022-08-10T06:56:05.405Z,26.0
2022-08-10T06:57:17.657Z,26.0
2022-08-10T06:58:00.834Z,26.2
2022-08-10T06:59:21.213Z,25.6
2022-08-10T07:00:04.408Z,25.6
2022-08-10T07:01:04.302Z,25.5
2022-08-10T07:02:04.841Z,25.5
2022-08-10T07:03:07.238Z,25.4
2022-08-10T07:04:05.544Z,25.2
2022-08-10T07:05:03.952Z,25.2
2022-08-10T07:06:03.421Z,25.2
2022-08-10T07:07:03.156Z,25.4
2022-08-10T07:08:01.418Z,25.8
2022-08-10T07:09:01.794Z,26.1
2022-08-10T07:10:00.351Z,26.5
2022-08-10T07:11:01.463Z,26.9
2022-08-10T07:12:08.071Z,27.0
2022-08-10T07:13:01.553Z,26.8
2022-08-10T07:14:14.146Z,26.6
2022-08-10T07:15:01.994Z,26.4
2022-08-10T07:16:01.116Z,26.5
2022-08-10T07:17:01.493Z,26.8
2022-08-10T07:18:01.822Z,26.9
2022-08-10T07:19:01.639Z,26.9
2022-08-10T07:20:01.610Z,26.8
2022-08-10T07:21:01.316Z,26.8
2022-08-10T07:22:01.074Z,26.5
2022-08-10T07:23:55.360Z,26.3
2022-08-10T07:24:01.195Z,26.2
2022-08-10T07:25:01.512Z,26.7
2022-08-10T07:26:01.884Z,26.3
2022-08-10T07:27:02.675Z,26.2
2022-08-10T07:28:02.252Z,26.4
2022-08-10T07:29:01.372Z,26.7
2022-08-10T07:30:01.618Z,26.8
2022-08-10T07:31:01.071Z,26.0
2022-08-10T07:32:02.250Z,25.2
2022-08-10T07:33:01.347Z,24.8
2022-08-10T07:34:01.251Z,25.2
2022-08-10T07:35:01.722Z,25.3
2022-08-10T07:36:01.581Z,25.3
2022-08-10T07:37:03.427Z,24.9
2022-08-10T07:38:02.026Z,24.6
2022-08-10T07:39:01.321Z,24.5
2022-08-10T07:40:04.843Z,24.7
2022-08-10T07:41:01.245Z,25.0
2022-08-10T07:42:01.963Z,25.1
2022-08-10T07:43:01.479Z,25.2
2022-08-10T07:44:02.468Z,25.7
2022-08-10T07:45:02.730Z,25.8
2022-08-10T07:46:05.376Z,25.6
2022-08-10T07:47:03.021Z,25.1
2022-08-10T07:48:08.032Z,24.5
2022-08-10T07:49:15.485Z,24.5
2022-08-10T07:50:04.254Z,24.1
2022-08-10T07:51:01.797Z,24.1
2022-08-10T07:52:01.289Z,24.4
2022-08-10T07:53:01.906Z,24.7
2022-08-10T07:54:03.008Z,25.0
2022-08-10T07:55:02.774Z,25.2
2022-08-10T07:56:16.581Z,25.3
2022-08-10T07:57:04.094Z,25.5
2022-08-10T07:58:01.715Z,25.7
2022-08-10T07:59:13.063Z,25.3
2022-08-10T08:00:05.891Z,25.4
2022-08-10T08:01:00.692Z,25.4
2022-08-10T08:02:03.953Z,25.4
2022-08-10T08:03:02.101Z,24.7
2022-08-10T08:04:05.436Z,24.7
2022-08-10T08:05:04.193Z,24.4
2022-08-10T08:06:05.207Z,24.8
2022-08-10T08:07:00.401Z,25.1
2022-08-10T08:08:01.914Z,25.0
2022-08-10T08:09:02.048Z,24.9
2022-08-10T08:10:01.670Z,24.6
2022-08-10T08:11:02.018Z,24.0
2022-08-10T08:12:01.727Z,23.6
2022-08-10T08:13:01.508Z,23.5
2022-08-10T08:14:01.864Z,24.0
2022-08-10T08:15:01.339Z,23.7
2022-08-10T08:16:20.545Z,24.0
2022-08-10T08:17:00.955Z,24.0
2022-08-10T08:18:02.901Z,24.4
2022-08-10T08:19:26.850Z,24.6
2022-08-10T08:20:02.702Z,25.1
2022-08-10T08:21:01.601Z,25.2
2022-08-10T08:24:04.824Z,25.7
2022-08-10T08:24:05.336Z,25.3
2022-08-10T08:24:10.245Z,25.2
2022-08-10T08:25:00.595Z,26.0
2022-08-10T08:26:01.035Z,26.2
2022-08-10T08:27:01.878Z,25.7
2022-08-10T08:28:01.319Z,25.3
2022-08-10T08:29:04.934Z,25.3
2022-08-10T08:30:00.866Z,25.7
2022-08-10T08:31:01.797Z,26.1
2022-08-10T08:32:03.165Z,25.9
2022-08-10T08:33:01.662Z,25.8
2022-08-10T08:34:02.870Z,25.4
2022-08-10T08:35:06.128Z,24.5
2022-08-10T08:36:01.287Z,24.5
2022-08-10T08:37:02.307Z,24.6
2022-08-10T08:38:32.638Z,25.3
2022-08-10T08:39:00.363Z,25.0
2022-08-10T08:40:03.148Z,24.9
2022-08-10T08:41:16.788Z,24.6
2022-08-10T08:42:20.123Z,25.3
2022-08-10T08:43:14.389Z,25.5
2022-08-10T08:44:06.503Z,25.2
2022-08-10T08:45:20.128Z,25.1
2022-08-10T08:46:20.142Z,25.0
2022-08-10T08:48:04.609Z,24.9
2022-08-10T08:48:10.172Z,24.8
2022-08-10T08:49:10.178Z,24.3
2022-08-10T08:50:13.422Z,23.9
2022-08-10T08:51:11.232Z,24.0
2022-08-10T08:52:17.895Z,24.4
2022-08-10T08:53:21.236Z,24.4
2022-08-10T08:54:17.535Z,24.5
2022-08-10T08:56:04.062Z,24.5
2022-08-10T08:56:08.872Z,24.9
2022-08-10T08:57:06.778Z,24.8
2022-08-10T08:58:12.633Z,25.0
2022-08-10T08:59:20.126Z,24.8
2022-08-10T09:00:13.559Z,25.0
2022-08-10T09:01:17.665Z,25.4
2022-08-10T09:02:10.248Z,25.7
2022-08-10T09:03:22.931Z,25.4
2022-08-10T09:04:19.591Z,25.6
2022-08-10T09:05:20.125Z,24.9
2022-08-10T09:06:01.222Z,24.9
2022-08-10T09:08:00.627Z,24.1
2022-08-10T09:08:17.445Z,24.6
2022-08-10T09:09:07.649Z,25.1
2022-08-10T09:10:11.221Z,25.7
2022-08-10T09:11:11.849Z,25.9
2022-08-10T09:12:10.212Z,25.8
2022-08-10T09:13:17.106Z,25.6
2022-08-10T09:14:17.670Z,26.1
2022-08-10T09:15:05.386Z,26.1
2022-08-10T09:16:13.190Z,24.5
2022-08-10T09:17:20.135Z,24.9
2022-08-10T09:18:20.136Z,24.6
2022-08-10T09:19:35.047Z,23.9
2022-08-10T09:20:07.340Z,23.6
2022-08-10T09:21:14.703Z,23.6
2022-08-10T09:22:17.083Z,23.6
2022-08-10T09:23:12.915Z,23.2
2022-08-10T09:24:10.183Z,23.5
2022-08-10T09:25:12.281Z,23.8
2022-08-10T09:26:10.529Z,23.8
2022-08-10T09:27:07.869Z,23.8
2022-08-10T09:28:15.517Z,23.2
2022-08-10T09:29:11.999Z,23.2
2022-08-10T09:30:05.277Z,23.1
2022-08-10T09:31:22.874Z,23.0
2022-08-10T09:36:16.356Z,22.9
2022-08-10T09:36:20.306Z,23.1
2022-08-10T09:36:21.414Z,23.1
2022-08-10T09:36:21.929Z,23.6
2022-08-10T09:36:22.800Z,23.2
2022-08-10T09:37:07.508Z,23.2
2022-08-10T09:38:10.213Z,23.1
2022-08-10T09:40:12.725Z,23.1
2022-08-10T09:40:59.482Z,23.3
2022-08-10T09:41:15.190Z,23.5
2022-08-10T09:42:15.018Z,23.6
2022-08-10T09:43:25.289Z,24.1
2022-08-10T09:44:10.467Z,24.4
2022-08-10T09:45:11.344Z,24.2
2022-08-10T09:46:12.797Z,24.5
2022-08-10T09:47:20.132Z,24.5
2022-08-10T09:48:08.224Z,23.7
2022-08-10T09:49:10.497Z,23.3
2022-08-10T09:50:04.780Z,23.3
2022-08-10T09:52:20.147Z,23.6
2022-08-10T09:53:04.595Z,23.6
2022-08-10T09:54:06.054Z,23.9
2022-08-10T09:55:11.927Z,24.0
2022-08-10T09:56:22.257Z,24.0
2022-08-10T09:57:41.613Z,24.1
2022-08-10T09:58:20.139Z,24.0
2022-08-10T09:59:26.973Z,24.1
2022-08-10T10:00:09.757Z,23.9
2022-08-10T10:01:09.284Z,23.7
2022-08-10T10:02:20.126Z,23.8
2022-08-10T10:03:14.320Z,23.7
2022-08-10T10:04:10.305Z,23.6
2022-08-10T10:05:10.165Z,23.6
2022-08-10T10:06:12.543Z,23.7
2022-08-10T10:07:04.399Z,23.7
2022-08-10T10:08:11.014Z,23.8
2022-08-10T10:09:10.605Z,23.8
2022-08-10T10:10:02.437Z,23.7
2022-08-10T10:11:10.720Z,23.6
2022-08-10T10:12:10.304Z,23.6
2022-08-10T10:13:13.166Z,23.7
2022-08-10T10:14:13.521Z,23.7
2022-08-10T10:15:24.073Z,23.8
2022-08-10T10:16:15.125Z,23.7
2022-08-10T10:17:11.382Z,23.7
2022-08-10T10:18:01.284Z,23.7
2022-08-10T10:19:20.135Z,23.9
2022-08-10T10:20:13.791Z,23.8
2022-08-10T10:21:10.185Z,23.9
2022-08-10T10:22:10.167Z,24.0
2022-08-10T10:23:10.168Z,24.1
2022-08-10T10:24:20.414Z,23.8
2022-08-10T10:25:19.913Z,23.6
2022-08-10T10:26:18.390Z,23.6
2022-08-10T10:27:20.136Z,23.7
2022-08-10T10:28:20.137Z,23.7
2022-08-10T10:29:37.649Z,23.9
2022-08-10T10:30:06.613Z,23.8
2022-08-10T10:31:16.891Z,23.8
2022-08-10T10:32:10.606Z,23.7
2022-08-10T10:33:14.311Z,23.5
2022-08-10T10:34:07.570Z,23.6
2022-08-10T10:35:10.249Z,23.6
2022-08-10T10:36:01.899Z,23.6
2022-08-10T10:37:01.549Z,23.7
2022-08-10T10:38:03.503Z,23.8
2022-08-10T10:39:01.350Z,23.8
2022-08-10T10:40:02.062Z,23.9
2022-08-10T10:41:20.125Z,23.6
2022-08-10T10:42:18.422Z,23.4
2022-08-10T10:43:10.390Z,23.2
2022-08-10T10:44:13.456Z,23.2
2022-08-10T10:45:10.183Z,23.3
2022-08-10T10:46:11.180Z,23.4
2022-08-10T10:47:11.196Z,23.5
2022-08-10T10:48:11.203Z,23.5
2022-08-10T10:49:20.127Z,23.5
2022-08-10T10:50:17.253Z,23.5
2022-08-10T10:51:20.125Z,23.5
2022-08-10T10:52:11.217Z,23.5
2022-08-10T10:53:13.108Z,23.7
2022-08-10T10:54:07.329Z,23.8
2022-08-10T10:55:12.462Z,23.8
2022-08-10T10:56:16.125Z,23.7
2022-08-10T10:57:11.206Z,23.7
2022-08-10T10:58:08.792Z,23.7
2022-08-10T10:59:54.344Z,23.7
2022-08-10T11:00:05.860Z,23.8
2022-08-10T11:01:11.521Z,23.7
2022-08-10T11:02:16.304Z,23.7
2022-08-10T11:03:13.484Z,23.8
2022-08-10T11:04:14.777Z,23.9
2022-08-10T11:05:10.177Z,24.0
2022-08-10T11:06:12.142Z,24.1
2022-08-10T11:07:06.703Z,24.3
2022-08-10T11:08:15.391Z,24.2
2022-08-10T11:09:05.034Z,24.2
2022-08-10T11:10:12.324Z,24.0
2022-08-10T11:11:03.896Z,24.0
2022-08-10T11:12:08.182Z,23.8
2022-08-10T11:14:24.455Z,23.7
2022-08-10T11:14:27.176Z,23.7
2022-08-10T11:15:14.818Z,23.8
2022-08-10T11:16:07.880Z,24.0
2022-08-10T11:17:10.103Z,24.0
2022-08-10T11:18:20.153Z,23.8
2022-08-10T11:19:20.126Z,23.9
2022-08-10T11:20:03.747Z,23.9
2022-08-10T11:21:13.613Z,23.9
2022-08-10T11:22:17.141Z,24.0
2022-08-10T11:23:10.917Z,23.9
2022-08-10T11:24:46.956Z,23.9
2022-08-10T11:25:10.160Z,23.9
2022-08-10T11:26:20.129Z,24.0
2022-08-10T11:27:01.223Z,24.0
2022-08-10T11:28:07.271Z,23.9
2022-08-10T11:29:08.497Z,24.0
2022-08-10T11:30:02.269Z,24.0
2022-08-10T11:31:03.787Z,24.0
2022-08-10T11:32:08.617Z,24.0
2022-08-10T11:33:11.102Z,23.9
2022-08-10T11:34:47.610Z,23.9
2022-08-10T11:35:12.714Z,23.9
2022-08-10T11:36:04.667Z,23.9
2022-08-10T11:37:17.352Z,24.1
2022-08-10T11:38:31.163Z,24.2
2022-08-10T11:39:20.204Z,24.4
2022-08-10T11:40:08.250Z,24.4
2022-08-10T11:42:08.922Z,24.4
2022-08-10T11:42:18.502Z,24.5
2022-08-10T11:43:03.484Z,24.5
2022-08-10T11:44:06.630Z,23.8
2022-08-10T11:45:04.769Z,23.8
2022-08-10T11:46:27.587Z,23.6
2022-08-10T11:47:13.877Z,23.6
2022-08-10T11:48:09.716Z,23.5
2022-08-10T11:49:03.989Z,23.5
2022-08-10T11:50:09.033Z,23.6
2022-08-10T11:51:03.777Z,23.6
2022-08-10T11:52:07.861Z,23.6
2022-08-10T11:53:08.761Z,23.7
2022-08-10T11:54:12.020Z,23.7
2022-08-10T11:55:06.690Z,23.7
2022-08-10T11:56:01.176Z,23.7
2022-08-10T11:57:02.426Z,23.6
2022-08-10T11:58:05.933Z,23.8
2022-08-10T11:59:00.268Z,23.8
2022-08-10T12:00:00.259Z,24.0
2022-08-10T12:01:04.095Z,24.1
2022-08-10T12:02:01.779Z,24.0
2022-08-10T12:03:04.728Z,24.0
2022-08-10T12:04:05.237Z,24.0
2022-08-10T12:05:09.363Z,24.1
2022-08-10T12:06:01.470Z,24.1
2022-08-10T12:07:03.746Z,24.1
2022-08-10T12:10:06.363Z,24.1
2022-08-10T12:10:10.241Z,24.1
2022-08-10T12:10:12.095Z,24.1
2022-08-10T12:11:01.012Z,24.1
2022-08-10T12:12:01.481Z,24.1
2022-08-10T12:13:08.308Z,24.3
2022-08-10T12:14:21.983Z,24.3
2022-08-10T12:15:11.545Z,24.4
2022-08-10T12:16:05.692Z,24.4
2022-08-10T12:17:06.288Z,24.2
2022-08-10T12:18:05.962Z,24.1
2022-08-10T12:19:09.386Z,24.0
2022-08-10T12:20:06.789Z,23.7
2022-08-10T12:21:07.610Z,23.7
2022-08-10T12:22:06.477Z,23.8
2022-08-10T12:23:18.694Z,23.8
2022-08-10T12:24:20.120Z,23.8
2022-08-10T12:25:05.083Z,23.8
2022-08-10T12:26:10.183Z,23.9
2022-08-10T12:27:07.971Z,24.0
2022-08-10T12:28:08.541Z,24.1
2022-08-10T12:29:24.811Z,24.2
2022-08-10T12:30:13.130Z,24.4
2022-08-10T12:31:01.531Z,24.4
2022-08-10T12:32:09.951Z,24.4
2022-08-10T12:33:03.629Z,24.4
2022-08-10T12:34:10.190Z,24.3
2022-08-10T12:35:05.607Z,24.2
2022-08-10T12:36:20.124Z,24.2
2022-08-10T12:37:08.182Z,24.2
2022-08-10T12:38:20.130Z,24.1
2022-08-10T12:39:08.955Z,23.9
2022-08-10T12:40:35.002Z,23.8
2022-08-10T12:41:05.676Z,23.9
2022-08-10T12:42:12.019Z,24.0
2022-08-10T12:44:04.263Z,23.9
2022-08-10T12:44:08.859Z,23.9
2022-08-10T12:45:05.206Z,23.9
2022-08-10T12:46:11.302Z,23.9
2022-08-10T12:47:14.119Z,23.9
2022-08-10T12:48:09.751Z,24.0
2022-08-10T12:49:07.871Z,24.0
2022-08-10T12:50:29.474Z,24.1
2022-08-10T12:51:00.248Z,24.1
2022-08-10T12:52:15.947Z,24.5
2022-08-10T12:53:13.932Z,24.5
2022-08-10T12:54:08.098Z,24.5
2022-08-10T12:55:04.137Z,24.5
2022-08-10T12:56:01.283Z,24.4
2022-08-10T12:57:07.082Z,24.0
2022-08-10T12:58:01.694Z,24.0
2022-08-10T12:59:03.729Z,23.9
2022-08-10T13:00:01.592Z,23.8
2022-08-10T13:01:16.018Z,23.7
2022-08-10T13:02:09.967Z,23.7
2022-08-10T13:03:04.827Z,23.7
2022-08-10T13:04:21.505Z,23.8
2022-08-10T13:05:04.744Z,23.9
2022-08-10T13:06:04.735Z,23.9
2022-08-10T13:07:02.847Z,23.9
2022-08-10T13:08:25.918Z,24.0
2022-08-10T13:09:00.640Z,24.0
2022-08-10T13:10:04.197Z,24.0
2022-08-10T13:11:03.029Z,24.1
2022-08-10T13:12:36.969Z,24.3
2022-08-10T13:13:01.740Z,24.4
2022-08-10T13:14:07.339Z,24.6
2022-08-10T13:15:47.737Z,24.6
2022-08-10T13:16:00.972Z,24.6
2022-08-10T13:17:02.649Z,24.6
2022-08-10T13:18:02.818Z,24.4
2022-08-10T13:19:02.927Z,24.3